createdAt,value
2022-10-07T00:00:23.899Z,50.877209
2022-10-07T00:01:24.018Z,50.877205
2022-10-07T00:02:23.935Z,50.877201
2022-10-07T00:03:23.867Z,50.877205
2022-10-07T00:04:23.867Z,50.877205
2022-10-07T00:05:23.850Z,50.877220
2022-10-07T00:06:23.859Z,50.877197
2022-10-07T00:07:23.838Z,50.877201
2022-10-07T00:08:23.826Z,50.877197
2022-10-07T00:09:23.802Z,50.877224
2022-10-07T00:10:24.801Z,50.877239
2022-10-07T00:11:23.808Z,50.877239
2022-10-07T00:12:23.789Z,50.877193
2022-10-07T00:13:23.786Z,50.877216
2022-10-07T00:14:23.758Z,50.877205
2022-10-07T00:15:23.784Z,50.877209
2022-10-07T00:16:23.759Z,50.877174
2022-10-07T00:17:23.743Z,50.877174
2022-10-07T00:18:23.723Z,50.877197
2022-10-07T00:19:23.717Z,50.877155
2022-10-07T00:20:23.726Z,50.877167
2022-10-07T00:21:23.701Z,50.877163
2022-10-07T00:22:23.714Z,50.877174
2022-10-07T00:23:23.675Z,50.877148
2022-10-07T00:24:23.668Z,50.877190
2022-10-07T00:25:23.658Z,50.877190
2022-10-07T00:26:23.650Z,50.877178
2022-10-07T00:27:23.668Z,50.877129
2022-10-07T00:28:23.663Z,50.877167
2022-10-07T00:29:23.614Z,50.877140
2022-10-07T00:30:23.601Z,50.877190
2022-10-07T00:31:23.646Z,50.877201
2022-10-07T00:32:23.602Z,50.877193
2022-10-07T00:33:23.570Z,50.877197
2022-10-07T00:34:23.577Z,50.877205
2022-10-07T00:35:23.558Z,50.877178
2022-10-07T00:36:23.551Z,50.877197
2022-10-07T00:37:23.542Z,50.877193
2022-10-07T00:38:23.533Z,50.877155
2022-10-07T00:39:23.545Z,50.877201
2022-10-07T00:40:23.514Z,50.877197
2022-10-07T00:41:23.498Z,50.877193
2022-10-07T00:42:23.500Z,50.877186
2022-10-07T00:43:23.500Z,50.877182
2022-10-07T00:44:23.495Z,50.877193
2022-10-07T00:45:23.466Z,50.877186
2022-10-07T00:46:23.580Z,50.877193
2022-10-07T00:47:23.451Z,50.877209
2022-10-07T00:48:23.439Z,50.877213
2022-10-07T00:49:23.424Z,50.877216
2022-10-07T00:50:23.436Z,50.877197
2022-10-07T00:51:23.409Z,50.877178
2022-10-07T00:52:23.394Z,50.877163
2022-10-07T00:53:23.392Z,50.877197
2022-10-07T00:54:23.374Z,50.877197
2022-10-07T00:55:23.387Z,50.877216
2022-10-07T00:56:23.358Z,50.877209
2022-10-07T00:57:23.352Z,50.877197
2022-10-07T00:58:23.332Z,50.877174
2022-10-07T00:59:23.319Z,50.877178
2022-10-07T01:00:23.330Z,50.877151
2022-10-07T01:01:23.335Z,50.877193
2022-10-07T01:02:23.346Z,50.877171
2022-10-07T01:03:24.301Z,50.877216
2022-10-07T01:04:23.288Z,50.877216
2022-10-07T01:05:23.294Z,50.877228
2022-10-07T01:06:23.273Z,50.877213
2022-10-07T01:07:23.260Z,50.877201
2022-10-07T01:08:23.224Z,50.877209
2022-10-07T01:09:23.223Z,50.877190
2022-10-07T01:10:23.214Z,50.877163
2022-10-07T01:11:23.201Z,50.877193
2022-10-07T01:12:23.212Z,50.877216
2022-10-07T01:13:23.180Z,50.877201
2022-10-07T01:14:23.195Z,50.877197
2022-10-07T01:15:23.164Z,50.877201
2022-10-07T01:16:23.205Z,50.877171
2022-10-07T01:17:23.145Z,50.877148
2022-10-07T01:18:23.137Z,50.877148
2022-10-07T01:19:23.185Z,50.877182
2022-10-07T01:20:23.122Z,50.877182
2022-10-07T01:21:23.104Z,50.877182
2022-10-07T01:22:23.090Z,50.877182
2022-10-07T01:23:23.088Z,50.877213
2022-10-07T01:24:23.081Z,50.877193
2022-10-07T01:25:23.082Z,50.877171
2022-10-07T01:26:23.062Z,50.877201
2022-10-07T01:27:23.053Z,50.877197
2022-10-07T01:28:23.123Z,50.877174
2022-10-07T01:29:23.041Z,50.877190
2022-10-07T01:30:23.026Z,50.877197
2022-10-07T01:31:23.073Z,50.877220
2022-10-07T01:32:23.017Z,50.877190
2022-10-07T01:33:22.991Z,50.877201
2022-10-07T01:34:22.986Z,50.877235
2022-10-07T01:35:22.965Z,50.877224
2022-10-07T01:36:22.958Z,50.877262
2022-10-07T01:37:22.968Z,50.877193
2022-10-07T01:38:22.934Z,50.877163
2022-10-07T01:39:22.928Z,50.877174
2022-10-07T01:40:22.930Z,50.877159
2022-10-07T01:41:22.920Z,50.877113
2022-10-07T01:42:22.904Z,50.877136
2022-10-07T01:43:22.914Z,50.877144
2022-10-07T01:44:22.883Z,50.877140
2022-10-07T01:45:22.859Z,50.877167
2022-10-07T01:46:22.903Z,50.877102
2022-10-07T01:47:22.866Z,50.877102
2022-10-07T01:48:22.836Z,50.877113
2022-10-07T01:49:22.862Z,50.877117
2022-10-07T01:50:22.831Z,50.877178
2022-10-07T01:51:22.823Z,50.877144
2022-10-07T01:52:22.831Z,50.877148
2022-10-07T01:53:22.795Z,50.877071
2022-10-07T01:54:22.791Z,50.877064
2022-10-07T01:55:22.778Z,50.877064
2022-10-07T01:56:22.766Z,50.877064
2022-10-07T01:57:22.828Z,50.877064
2022-10-07T01:58:22.748Z,50.877064
2022-10-07T01:59:22.743Z,50.877064
2022-10-07T02:00:22.728Z,50.877064
2022-10-07T02:01:22.812Z,50.877064
2022-10-07T02:02:22.711Z,50.877064
2022-10-07T02:03:22.776Z,50.877064
2022-10-07T02:04:22.698Z,50.877064
2022-10-07T02:05:22.685Z,50.877064
2022-10-07T02:06:22.669Z,50.877064
2022-10-07T02:07:22.675Z,50.877064
2022-10-07T02:08:22.664Z,50.877064
2022-10-07T02:09:22.643Z,50.877064
2022-10-07T02:10:22.634Z,50.877205
2022-10-07T02:11:22.619Z,50.877193
2022-10-07T02:12:22.614Z,50.877148
2022-10-07T02:13:22.618Z,50.877178
2022-10-07T02:14:22.601Z,50.877144
2022-10-07T02:15:22.609Z,50.877159
2022-10-07T02:16:22.798Z,50.877186
2022-10-07T02:17:22.592Z,50.877190
2022-10-07T02:18:22.581Z,50.877178
2022-10-07T02:19:22.551Z,50.877167
2022-10-07T02:20:22.542Z,50.877171
2022-10-07T02:21:22.537Z,50.877163
2022-10-07T02:22:22.553Z,50.877163
2022-10-07T02:23:22.518Z,50.877171
2022-10-07T02:24:22.527Z,50.877159
2022-10-07T02:25:22.508Z,50.877144
2022-10-07T02:26:54.389Z,50.877129
2022-10-07T02:27:22.491Z,50.877136
2022-10-07T02:28:22.492Z,50.877110
2022-10-07T02:29:22.486Z,50.877129
2022-10-07T02:30:22.446Z,50.877117
2022-10-07T02:31:22.521Z,50.877140
2022-10-07T02:32:22.424Z,50.877155
2022-10-07T02:33:22.419Z,50.877163
2022-10-07T02:34:22.404Z,50.877163
2022-10-07T02:35:22.384Z,50.877151
2022-10-07T02:36:22.418Z,50.877129
2022-10-07T02:37:22.378Z,50.877102
2022-10-07T02:38:22.373Z,50.877151
2022-10-07T02:39:22.361Z,50.877121
2022-10-07T02:40:22.344Z,50.877155
2022-10-07T02:41:22.342Z,50.877125
2022-10-07T02:42:22.339Z,50.877132
2022-10-07T02:43:22.320Z,50.877075
2022-10-07T02:44:22.300Z,50.877110
2022-10-07T02:45:26.692Z,50.877178
2022-10-07T02:46:23.344Z,50.877197
2022-10-07T02:47:22.299Z,50.877159
2022-10-07T02:48:22.279Z,50.877205
2022-10-07T02:49:22.259Z,50.877216
2022-10-07T02:50:22.253Z,50.877216
2022-10-07T02:51:22.241Z,50.877209
2022-10-07T02:52:22.233Z,50.877193
2022-10-07T02:53:22.242Z,50.877209
2022-10-07T02:54:22.221Z,50.877182
2022-10-07T02:55:22.218Z,50.877174
2022-10-07T02:56:22.185Z,50.877213
2022-10-07T02:57:22.179Z,50.877144
2022-10-07T02:58:22.170Z,50.877151
2022-10-07T02:59:22.170Z,50.877148
2022-10-07T03:00:22.172Z,50.877209
2022-10-07T03:01:22.162Z,50.877155
2022-10-07T03:02:22.127Z,50.877190
2022-10-07T03:03:22.162Z,50.877182
2022-10-07T03:04:22.159Z,50.877171
2022-10-07T03:05:22.104Z,50.877171
2022-10-07T03:06:22.093Z,50.877151
2022-10-07T03:07:22.096Z,50.877205
2022-10-07T03:08:22.071Z,50.877193
2022-10-07T03:09:22.054Z,50.877213
2022-10-07T03:10:22.051Z,50.877186
2022-10-07T03:11:22.038Z,50.877159
2022-10-07T03:12:22.052Z,50.877228
2022-10-07T03:13:22.019Z,50.877220
2022-10-07T03:14:22.009Z,50.877220
2022-10-07T03:15:22.009Z,50.877163
2022-10-07T03:16:22.065Z,50.877190
2022-10-07T03:17:21.985Z,50.877193
2022-10-07T03:18:21.991Z,50.877216
2022-10-07T03:19:21.962Z,50.877220
2022-10-07T03:20:21.957Z,50.877182
2022-10-07T03:21:21.952Z,50.877182
2022-10-07T03:22:21.927Z,50.877159
2022-10-07T03:23:21.909Z,50.877205
2022-10-07T03:24:21.920Z,50.877148
2022-10-07T03:25:21.908Z,50.877232
2022-10-07T03:26:21.909Z,50.877167
2022-10-07T03:27:21.892Z,50.877186
2022-10-07T03:28:21.968Z,50.877232
2022-10-07T03:29:21.866Z,50.877186
2022-10-07T03:30:24.550Z,50.877239
2022-10-07T03:31:23.052Z,50.877213
2022-10-07T03:32:21.835Z,50.877266
2022-10-07T03:33:21.849Z,50.877251
2022-10-07T03:34:21.813Z,50.877216
2022-10-07T03:35:21.819Z,50.877178
2022-10-07T03:36:21.805Z,50.877182
2022-10-07T03:37:21.819Z,50.877224
2022-10-07T03:38:21.784Z,50.877190
2022-10-07T03:39:21.767Z,50.877228
2022-10-07T03:40:21.770Z,50.877258
2022-10-07T03:41:21.760Z,50.877193
2022-10-07T03:42:21.758Z,50.877186
2022-10-07T03:43:21.739Z,50.877087
2022-10-07T03:44:21.725Z,50.877174
2022-10-07T03:45:21.721Z,50.877254
2022-10-07T03:46:21.737Z,50.877174
2022-10-07T03:47:21.724Z,50.877132
2022-10-07T03:48:21.679Z,50.877232
2022-10-07T03:49:21.672Z,50.877216
2022-10-07T03:50:21.678Z,50.877182
2022-10-07T03:51:21.650Z,50.877182
2022-10-07T03:52:21.641Z,50.877174
2022-10-07T03:53:21.632Z,50.877216
2022-10-07T03:54:21.628Z,50.877216
2022-10-07T03:55:21.623Z,50.877224
2022-10-07T03:56:22.631Z,50.877205
2022-10-07T03:57:21.600Z,50.877247
2022-10-07T03:58:21.579Z,50.877216
2022-10-07T03:59:21.578Z,50.877239
2022-10-07T04:00:21.580Z,50.877155
2022-10-07T04:01:21.591Z,50.877254
2022-10-07T04:02:21.552Z,50.877277
2022-10-07T04:03:21.589Z,50.877289
2022-10-07T04:04:21.537Z,50.877346
2022-10-07T04:05:21.536Z,50.877251
2022-10-07T04:06:21.514Z,50.877251
2022-10-07T04:07:21.510Z,50.877213
2022-10-07T04:08:21.492Z,50.877125
2022-10-07T04:09:21.489Z,50.877148
2022-10-07T04:10:21.502Z,50.877209
2022-10-07T04:11:21.506Z,50.877254
2022-10-07T04:12:21.451Z,50.877262
2022-10-07T04:13:21.454Z,50.877281
2022-10-07T04:14:21.454Z,50.877258
2022-10-07T04:15:21.424Z,50.877251
2022-10-07T04:16:21.443Z,50.877270
2022-10-07T04:17:21.403Z,50.877293
2022-10-07T04:18:21.419Z,50.877266
2022-10-07T04:19:21.383Z,50.877216
2022-10-07T04:20:22.393Z,50.877216
2022-10-07T04:21:21.365Z,50.877186
2022-10-07T04:22:21.365Z,50.877243
2022-10-07T04:23:21.387Z,50.877247
2022-10-07T04:24:21.377Z,50.877232
2022-10-07T04:25:21.334Z,50.877235
2022-10-07T04:26:21.325Z,50.877243
2022-10-07T04:27:46.773Z,50.877266
2022-10-07T04:28:23.352Z,50.877159
2022-10-07T04:29:21.320Z,50.877151
2022-10-07T04:30:21.276Z,50.877190
2022-10-07T04:31:21.331Z,50.877197
2022-10-07T04:32:21.256Z,50.877186
2022-10-07T04:33:21.247Z,50.877174
2022-10-07T04:34:21.293Z,50.877174
2022-10-07T04:35:21.221Z,50.877174
2022-10-07T04:36:21.219Z,50.877178
2022-10-07T04:37:21.221Z,50.877201
2022-10-07T04:38:24.202Z,50.877197
2022-10-07T04:39:29.920Z,50.877213
2022-10-07T04:40:21.189Z,50.877205
2022-10-07T04:41:21.168Z,50.877201
2022-10-07T04:42:21.146Z,50.877205
2022-10-07T04:43:21.165Z,50.877209
2022-10-07T04:44:21.170Z,50.877190
2022-10-07T04:45:21.120Z,50.877193
2022-10-07T04:46:21.172Z,50.877182
2022-10-07T04:47:21.096Z,50.877182
2022-10-07T04:48:21.091Z,50.877190
2022-10-07T04:49:21.097Z,50.877178
2022-10-07T04:50:21.078Z,50.877193
2022-10-07T04:51:21.078Z,50.877197
2022-10-07T04:52:21.055Z,50.877193
2022-10-07T04:53:21.054Z,50.877197
2022-10-07T04:54:21.039Z,50.877190
2022-10-07T04:55:21.026Z,50.877163
2022-10-07T04:56:21.073Z,50.877193
2022-10-07T04:57:21.015Z,50.877193
2022-10-07T04:58:20.984Z,50.877159
2022-10-07T04:59:23.615Z,50.877190
2022-10-07T05:00:21.974Z,50.877216
2022-10-07T05:01:21.017Z,50.877159
2022-10-07T05:02:21.032Z,50.877182
2022-10-07T05:03:20.942Z,50.877190
2022-10-07T05:04:20.922Z,50.877178
2022-10-07T05:05:20.917Z,50.877178
2022-10-07T05:06:20.947Z,50.877197
2022-10-07T05:07:20.913Z,50.877209
2022-10-07T05:08:20.893Z,50.877167
2022-10-07T05:09:20.882Z,50.877148
2022-10-07T05:10:20.875Z,50.877144
2022-10-07T05:11:20.862Z,50.877171
2022-10-07T05:12:20.877Z,50.877171
2022-10-07T05:13:20.870Z,50.877113
2022-10-07T05:14:20.832Z,50.877155
2022-10-07T05:15:20.825Z,50.877178
2022-10-07T05:16:20.870Z,50.877174
2022-10-07T05:17:20.801Z,50.877205
2022-10-07T05:18:20.837Z,50.877220
2022-10-07T05:19:20.803Z,50.877224
2022-10-07T05:20:20.792Z,50.877224
2022-10-07T05:21:20.760Z,50.877193
2022-10-07T05:22:20.752Z,50.877186
2022-10-07T05:23:23.302Z,50.877151
2022-10-07T05:24:21.755Z,50.877186
2022-10-07T05:25:20.724Z,50.877193
2022-10-07T05:26:20.724Z,50.877190
2022-10-07T05:27:20.706Z,50.877205
2022-10-07T05:28:20.714Z,50.877178
2022-10-07T05:29:20.705Z,50.877201
2022-10-07T05:30:20.682Z,50.877186
2022-10-07T05:31:20.735Z,50.877190
2022-10-07T05:32:20.679Z,50.877201
2022-10-07T05:33:20.647Z,50.877186
2022-10-07T05:34:20.631Z,50.877224
2022-10-07T05:35:20.635Z,50.877213
2022-10-07T05:36:20.660Z,50.877220
2022-10-07T05:37:20.621Z,50.877247
2022-10-07T05:38:20.597Z,50.877209
2022-10-07T05:39:20.589Z,50.877190
2022-10-07T05:40:20.584Z,50.877209
2022-10-07T05:41:20.580Z,50.877213
2022-10-07T05:42:20.572Z,50.877216
2022-10-07T05:43:20.547Z,50.877247
2022-10-07T05:44:20.535Z,50.877163
2022-10-07T05:45:20.531Z,50.877171
2022-10-07T05:46:20.612Z,50.877190
2022-10-07T05:47:20.513Z,50.877132
2022-10-07T05:48:20.502Z,50.877140
2022-10-07T05:49:20.512Z,50.877106
2022-10-07T05:50:20.487Z,50.877094
2022-10-07T05:51:20.476Z,50.877193
2022-10-07T05:52:20.464Z,50.877216
2022-10-07T05:53:20.458Z,50.877197
2022-10-07T05:54:20.462Z,50.877182
2022-10-07T05:55:20.432Z,50.877163
2022-10-07T05:56:20.424Z,50.877174
2022-10-07T05:57:21.404Z,50.877186
2022-10-07T05:58:20.407Z,50.877148
2022-10-07T05:59:20.414Z,50.877174
2022-10-07T06:00:20.413Z,50.877178
2022-10-07T06:01:20.360Z,50.877190
2022-10-07T06:02:20.542Z,50.877171
2022-10-07T06:03:20.387Z,50.877167
2022-10-07T06:04:20.362Z,50.877178
2022-10-07T06:05:20.330Z,50.877182
2022-10-07T06:06:20.320Z,50.877182
2022-10-07T06:07:22.721Z,50.877151
2022-10-07T06:08:21.302Z,50.877155
2022-10-07T06:09:20.318Z,50.877159
2022-10-07T06:10:20.282Z,50.877159
2022-10-07T06:11:20.279Z,50.877155
2022-10-07T06:12:20.253Z,50.877148
2022-10-07T06:13:20.257Z,50.877159
2022-10-07T06:14:20.273Z,50.877148
2022-10-07T06:15:20.247Z,50.877159
2022-10-07T06:16:20.269Z,50.877144
2022-10-07T06:17:20.215Z,50.877151
2022-10-07T06:18:20.209Z,50.877151
2022-10-07T06:19:20.201Z,50.877136
2022-10-07T06:20:20.190Z,50.877151
2022-10-07T06:21:21.189Z,50.877174
2022-10-07T06:22:20.193Z,50.877163
2022-10-07T06:23:20.149Z,50.877167
2022-10-07T06:24:20.161Z,50.877151
2022-10-07T06:25:20.146Z,50.877159
2022-10-07T06:26:20.127Z,50.877159
2022-10-07T06:27:20.129Z,50.877163
2022-10-07T06:28:20.195Z,50.877174
2022-10-07T06:29:20.103Z,50.877151
2022-10-07T06:30:20.106Z,50.877129
2022-10-07T06:31:20.184Z,50.877155
2022-10-07T06:32:20.069Z,50.877148
2022-10-07T06:33:20.083Z,50.877144
2022-10-07T06:34:20.040Z,50.877159
2022-10-07T06:35:20.046Z,50.877174
2022-10-07T06:36:20.102Z,50.877174
2022-10-07T06:37:20.037Z,50.877186
2022-10-07T06:38:20.008Z,50.877155
2022-10-07T06:39:19.989Z,50.877155
2022-10-07T06:40:20.008Z,50.877155
2022-10-07T06:41:19.969Z,50.877171
2022-10-07T06:42:19.984Z,50.877159
2022-10-07T06:43:19.953Z,50.877144
2022-10-07T06:44:19.958Z,50.877151
2022-10-07T06:45:19.939Z,50.877151
2022-10-07T06:46:19.998Z,50.877140
2022-10-07T06:47:19.928Z,50.877125
2022-10-07T06:48:19.926Z,50.877129
2022-10-07T06:49:19.899Z,50.877140
2022-10-07T06:50:19.892Z,50.877155
2022-10-07T06:51:19.919Z,50.877140
2022-10-07T06:52:19.877Z,50.877151
2022-10-07T06:53:19.874Z,50.877151
2022-10-07T06:54:19.851Z,50.877151
2022-10-07T06:55:19.841Z,50.877155
2022-10-07T06:56:19.833Z,50.877159
2022-10-07T06:57:44.166Z,50.877155
2022-10-07T06:58:22.525Z,50.877148
2022-10-07T06:59:19.814Z,50.877098
2022-10-07T07:00:19.791Z,50.877159
2022-10-07T07:01:19.854Z,50.877163
2022-10-07T07:02:19.845Z,50.877148
2022-10-07T07:03:19.788Z,50.877201
2022-10-07T07:04:19.775Z,50.877224
2022-10-07T07:05:20.744Z,50.877163
2022-10-07T07:06:19.733Z,50.877148
2022-10-07T07:07:19.742Z,50.877151
2022-10-07T07:08:19.710Z,50.877174
2022-10-07T07:09:19.717Z,50.877151
2022-10-07T07:10:19.704Z,50.877159
2022-10-07T07:11:19.686Z,50.877201
2022-10-07T07:12:19.673Z,50.877216
2022-10-07T07:13:19.673Z,50.877201
2022-10-07T07:14:19.655Z,50.877209
2022-10-07T07:15:19.663Z,50.877174
2022-10-07T07:16:19.721Z,50.877171
2022-10-07T07:17:19.622Z,50.877216
2022-10-07T07:18:19.612Z,50.877205
2022-10-07T07:19:19.610Z,50.877171
2022-10-07T07:20:19.592Z,50.877159
2022-10-07T07:21:19.606Z,50.877232
2022-10-07T07:22:19.595Z,50.877190
2022-10-07T07:23:19.569Z,50.877163
2022-10-07T07:24:19.549Z,50.877190
2022-10-07T07:25:19.544Z,50.877243
2022-10-07T07:26:19.534Z,50.877239
2022-10-07T07:27:19.547Z,50.877228
2022-10-07T07:28:19.552Z,50.877193
2022-10-07T07:29:19.500Z,50.877205
2022-10-07T07:30:19.489Z,50.877213
2022-10-07T07:31:19.543Z,50.877209
2022-10-07T07:32:19.510Z,50.877232
2022-10-07T07:33:19.455Z,50.877254
2022-10-07T07:34:19.446Z,50.877239
2022-10-07T07:35:19.461Z,50.877224
2022-10-07T07:36:19.421Z,50.877205
2022-10-07T07:37:19.429Z,50.877193
2022-10-07T07:38:23.345Z,50.877228
2022-10-07T07:39:21.415Z,50.877213
2022-10-07T07:40:19.425Z,50.877220
2022-10-07T07:41:19.393Z,50.877201
2022-10-07T07:42:19.375Z,50.877201
2022-10-07T07:43:19.360Z,50.877209
2022-10-07T07:44:19.356Z,50.877193
2022-10-07T07:45:19.342Z,50.877205
2022-10-07T07:46:19.412Z,50.877197
2022-10-07T07:47:19.316Z,50.877209
2022-10-07T07:48:19.316Z,50.877228
2022-10-07T07:49:19.299Z,50.877224
2022-10-07T07:50:19.283Z,50.877205
2022-10-07T07:51:19.373Z,50.877216
2022-10-07T07:52:19.264Z,50.877171
2022-10-07T07:53:19.270Z,50.877174
2022-10-07T07:54:19.270Z,50.877182
2022-10-07T07:55:19.246Z,50.877159
2022-10-07T07:56:19.226Z,50.877190
2022-10-07T07:57:19.265Z,50.877205
2022-10-07T07:58:19.232Z,50.877171
2022-10-07T07:59:19.192Z,50.877182
2022-10-07T08:00:19.185Z,50.877205
2022-10-07T08:01:19.247Z,50.877216
2022-10-07T08:02:19.236Z,50.877220
2022-10-07T08:03:19.155Z,50.877197
2022-10-07T08:04:19.168Z,50.877190
2022-10-07T08:05:23.703Z,50.877186
2022-10-07T08:06:20.129Z,50.877193
2022-10-07T08:07:19.115Z,50.877186
2022-10-07T08:08:19.118Z,50.877193
2022-10-07T08:09:19.127Z,50.877197
2022-10-07T08:10:19.091Z,50.877163
2022-10-07T08:11:19.085Z,50.877167
2022-10-07T08:12:19.091Z,50.877193
2022-10-07T08:13:19.074Z,50.877209
2022-10-07T08:14:19.060Z,50.877178
2022-10-07T08:15:19.066Z,50.877186
2022-10-07T08:16:19.040Z,50.877201
2022-10-07T08:17:19.020Z,50.877178
2022-10-07T08:18:19.014Z,50.877232
2022-10-07T08:19:19.009Z,50.877205
2022-10-07T08:20:19.011Z,50.877197
2022-10-07T08:21:18.979Z,50.877178
2022-10-07T08:22:18.971Z,50.877178
2022-10-07T08:23:18.987Z,50.877193
2022-10-07T08:24:18.958Z,50.877209
2022-10-07T08:25:18.940Z,50.877182
2022-10-07T08:26:18.936Z,50.877193
2022-10-07T08:27:50.818Z,50.877201
2022-10-07T08:28:18.978Z,50.877186
2022-10-07T08:29:18.929Z,50.877205
2022-10-07T08:30:18.911Z,50.877190
2022-10-07T08:31:18.922Z,50.877178
2022-10-07T08:32:18.893Z,50.877197
2022-10-07T08:33:18.857Z,50.877174
2022-10-07T08:34:19.856Z,50.877281
2022-10-07T08:35:18.851Z,50.877209
2022-10-07T08:36:18.830Z,50.877228
2022-10-07T08:37:18.833Z,50.877201
2022-10-07T08:38:18.827Z,50.877171
2022-10-07T08:39:18.803Z,50.877151
2022-10-07T08:40:18.788Z,50.877106
2022-10-07T08:41:18.780Z,50.877171
2022-10-07T08:42:18.787Z,50.877182
2022-10-07T08:43:18.760Z,50.877182
2022-10-07T08:44:18.759Z,50.877178
2022-10-07T08:45:18.741Z,50.877228
2022-10-07T08:46:18.775Z,50.877201
2022-10-07T08:47:18.729Z,50.877190
2022-10-07T08:48:18.706Z,50.877220
2022-10-07T08:49:18.687Z,50.877140
2022-10-07T08:50:20.086Z,50.877129
2022-10-07T08:51:19.701Z,50.877144
2022-10-07T08:52:18.692Z,50.877182
2022-10-07T08:53:18.664Z,50.877258
2022-10-07T08:54:18.680Z,50.877201
2022-10-07T08:55:18.698Z,50.877159
2022-10-07T08:56:18.653Z,50.877190
2022-10-07T08:57:18.629Z,50.877178
2022-10-07T08:58:18.620Z,50.877190
2022-10-07T08:59:18.614Z,50.877216
2022-10-07T09:00:18.609Z,50.877163
2022-10-07T09:01:18.631Z,50.877159
2022-10-07T09:02:18.610Z,50.877148
2022-10-07T09:03:21.502Z,50.877205
2022-10-07T09:04:20.550Z,50.877197
2022-10-07T09:05:18.544Z,50.877159
2022-10-07T09:06:18.576Z,50.877190
2022-10-07T09:07:18.552Z,50.877209
2022-10-07T09:08:18.507Z,50.877201
2022-10-07T09:09:18.531Z,50.877190
2022-10-07T09:10:18.514Z,50.877197
2022-10-07T09:11:18.478Z,50.877182
2022-10-07T09:12:18.465Z,50.877190
2022-10-07T09:13:18.477Z,50.877171
2022-10-07T09:14:18.471Z,50.877174
2022-10-07T09:15:18.463Z,50.877167
2022-10-07T09:16:18.521Z,50.877186
2022-10-07T09:17:18.420Z,50.877190
2022-10-07T09:18:18.418Z,50.877186
2022-10-07T09:19:18.412Z,50.877209
2022-10-07T09:20:18.400Z,50.877148
2022-10-07T09:21:18.465Z,50.877182
2022-10-07T09:22:18.377Z,50.877163
2022-10-07T09:23:18.362Z,50.877205
2022-10-07T09:24:18.353Z,50.877174
2022-10-07T09:25:18.350Z,50.877182
2022-10-07T09:26:18.334Z,50.877151
2022-10-07T09:27:19.319Z,50.877132
2022-10-07T09:28:18.373Z,50.877125
2022-10-07T09:29:18.297Z,50.877205
2022-10-07T09:30:18.285Z,50.877159
2022-10-07T09:31:18.323Z,50.877224
2022-10-07T09:32:18.275Z,50.877205
2022-10-07T09:33:18.284Z,50.877155
2022-10-07T09:34:18.267Z,50.877087
2022-10-07T09:35:18.252Z,50.877144
2022-10-07T09:36:18.253Z,50.877190
2022-10-07T09:37:18.214Z,50.877224
2022-10-07T09:38:18.220Z,50.877232
2022-10-07T09:39:18.205Z,50.877201
2022-10-07T09:40:18.199Z,50.877148
2022-10-07T09:41:18.185Z,50.877201
2022-10-07T09:42:18.169Z,50.877121
2022-10-07T09:43:18.168Z,50.877155
2022-10-07T09:44:18.155Z,50.877155
2022-10-07T09:45:18.134Z,50.877174
2022-10-07T09:46:18.173Z,50.877174
2022-10-07T09:47:18.111Z,50.877174
2022-10-07T09:48:18.120Z,50.877174
2022-10-07T09:49:22.241Z,50.877144
2022-10-07T09:50:19.140Z,50.877163
2022-10-07T09:51:18.096Z,50.877129
2022-10-07T09:52:18.077Z,50.877136
2022-10-07T09:53:18.052Z,50.877163
2022-10-07T09:54:18.050Z,50.877178
2022-10-07T09:55:18.059Z,50.877201
2022-10-07T09:56:18.042Z,50.877171
2022-10-07T09:57:18.986Z,50.877182
2022-10-07T09:58:19.016Z,50.877178
2022-10-07T09:59:17.993Z,50.877201
2022-10-07T10:00:17.984Z,50.877205
2022-10-07T10:01:17.976Z,50.877186
2022-10-07T10:02:18.075Z,50.877163
2022-10-07T10:03:18.022Z,50.877182
2022-10-07T10:04:17.958Z,50.877186
2022-10-07T10:05:17.923Z,50.877163
2022-10-07T10:06:17.917Z,50.877174
2022-10-07T10:07:17.924Z,50.877186
2022-10-07T10:08:17.905Z,50.877174
2022-10-07T10:09:20.198Z,50.877277
2022-10-07T10:10:18.978Z,50.877232
2022-10-07T10:11:17.877Z,50.877232
2022-10-07T10:12:17.881Z,50.877186
2022-10-07T10:13:17.866Z,50.877190
2022-10-07T10:14:17.869Z,50.877235
2022-10-07T10:15:17.831Z,50.877224
2022-10-07T10:16:17.918Z,50.877178
2022-10-07T10:17:17.830Z,50.877193
2022-10-07T10:18:17.811Z,50.877216
2022-10-07T10:19:17.807Z,50.877224
2022-10-07T10:20:17.787Z,50.877243
2022-10-07T10:21:17.780Z,50.877239
2022-10-07T10:22:17.766Z,50.877151
2022-10-07T10:23:17.796Z,50.877113
2022-10-07T10:24:17.751Z,50.877186
2022-10-07T10:25:17.734Z,50.877228
2022-10-07T10:26:17.720Z,50.877209
2022-10-07T10:27:17.714Z,50.877121
2022-10-07T10:28:17.764Z,50.877136
2022-10-07T10:29:17.693Z,50.877178
2022-10-07T10:30:17.691Z,50.877171
2022-10-07T10:31:17.738Z,50.877224
2022-10-07T10:32:17.665Z,50.877220
2022-10-07T10:33:17.647Z,50.877243
2022-10-07T10:34:17.670Z,50.877201
2022-10-07T10:35:17.636Z,50.877220
2022-10-07T10:36:17.628Z,50.877174
2022-10-07T10:37:17.612Z,50.877216
2022-10-07T10:38:17.631Z,50.877136
2022-10-07T10:39:17.620Z,50.877148
2022-10-07T10:40:19.098Z,50.877159
2022-10-07T10:41:17.583Z,50.877205
2022-10-07T10:42:17.592Z,50.877205
2022-10-07T10:43:17.547Z,50.877190
2022-10-07T10:44:17.542Z,50.877205
2022-10-07T10:45:17.525Z,50.877159
2022-10-07T10:46:17.576Z,50.877132
2022-10-07T10:47:17.533Z,50.877178
2022-10-07T10:48:17.495Z,50.877186
2022-10-07T10:49:17.486Z,50.877193
2022-10-07T10:50:17.553Z,50.877094
2022-10-07T10:51:18.480Z,50.877193
2022-10-07T10:52:17.495Z,50.877171
2022-10-07T10:53:17.459Z,50.877193
2022-10-07T10:54:17.436Z,50.877190
2022-10-07T10:55:17.434Z,50.877197
2022-10-07T10:56:17.434Z,50.877140
2022-10-07T10:57:17.476Z,50.877136
2022-10-07T10:58:17.389Z,50.877167
2022-10-07T10:59:17.403Z,50.877213
2022-10-07T11:00:17.444Z,50.877171
2022-10-07T11:01:17.372Z,50.877159
2022-10-07T11:02:17.422Z,50.877216
2022-10-07T11:03:17.479Z,50.877178
2022-10-07T11:04:17.357Z,50.877182
2022-10-07T11:05:17.341Z,50.877140
2022-10-07T11:06:17.317Z,50.877098
2022-10-07T11:07:17.308Z,50.877102
2022-10-07T11:08:17.303Z,50.877163
2022-10-07T11:09:17.305Z,50.877159
2022-10-07T11:10:17.390Z,50.877144
2022-10-07T11:11:17.271Z,50.877140
2022-10-07T11:12:17.249Z,50.877205
2022-10-07T11:13:17.270Z,50.877171
2022-10-07T11:14:17.252Z,50.877106
2022-10-07T11:15:17.230Z,50.877075
2022-10-07T11:16:17.268Z,50.877110
2022-10-07T11:17:17.208Z,50.877102
2022-10-07T11:18:17.216Z,50.877102
2022-10-07T11:19:17.195Z,50.877098
2022-10-07T11:20:17.268Z,50.877102
2022-10-07T11:21:17.171Z,50.877068
2022-10-07T11:22:17.152Z,50.877071
2022-10-07T11:23:17.150Z,50.877094
2022-10-07T11:24:17.148Z,50.877064